Terminal Aerodrome Forecast
Issued by NWS Green Bay, WI

Home | Current Version | Previous Version | Graphics & Text | Print | Product List | Glossary On
Versions: 1 2 3 4 5 6 7 8 9 10 11 12 13 14 15 16 17 18 19 20 21 22 23 24 25 26 27 28 29 30 31
000
FTUS43 KGRB 051700
TAFGRB
TAF
KGRB 051725Z 0518/0618 08009KT P6SM SCT070 BKN200
     FM060100 08005KT P6SM SCT040 OVC070
     FM060500 08004KT P6SM SCT025 OVC040
     FM061000 10004KT 5SM BR BKN015 OVC025 PROB30 0610/0616 4SM
      -SHRA BR
     FM061600 12006KT P6SM SCT025 BKN035=

USA.gov is the U.S. government's official web portal to all federal, state and local government web resources and services.